Time;durP1;ratioP1;P1;durP2;ratioP2;P2;SDS_P1;SDS_P2;PMS_P1;PMS_P2;Temp;Humidity;BMP_temperature;BMP_pressure;BME280_temperature;BME280_humidity;BME280_pressure;Samples;Min_cycle;Max_cycle;Signal;HPM_P1;HPM_P2
2024/05/01 00:06:20;;;;;;;21.9;13.7;;;;;;;;;;;;;-71
2024/05/01 00:36:22;;;;;;;16.5;11.7;;;;;;;;;;;;;-72
2024/05/01 01:06:24;;;;;;;15.8;11.9;;;;;;;;;;;;;-68
2024/05/01 01:36:26;;;;;;;40.1;22.5;;;;;;;;;;;;;-73
2024/05/01 02:06:28;;;;;;;46.5;30.5;;;;;;;;;;;;;-71
2024/05/01 02:36:30;;;;;;;33.2;21.8;;;;;;;;;;;;;-72
2024/05/01 03:06:32;;;;;;;29.8;16.4;;;;;;;;;;;;;-71
2024/05/01 03:36:34;;;;;;;31;20.3;;;;;;;;;;;;;-73
2024/05/01 04:06:37;;;;;;;38.9;23.7;;;;;;;;;;;;;-70
2024/05/01 04:36:38;;;;;;;32.1;19.1;;;;;;;;;;;;;-70
2024/05/01 05:06:40;;;;;;;26.6;14.7;;;;;;;;;;;;;-68
2024/05/01 05:36:43;;;;;;;19;9.7;;;;;;;;;;;;;-66
2024/05/01 06:06:44;;;;;;;17.6;10;;;;;;;;;;;;;-66
2024/05/01 06:36:47;;;;;;;15.5;8;;;;;;;;;;;;;-71
2024/05/01 07:06:49;;;;;;;16.6;6.9;;;;;;;;;;;;;-70
2024/05/01 07:36:53;;;;;;;10.5;4.5;;;;;;;;;;;;;-70
2024/05/01 08:06:56;;;;;;;14.2;5.4;;;;;;;;;;;;;-69
2024/05/01 08:37:00;;;;;;;12.6;7;;;;;;;;;;;;;-68
2024/05/01 09:07:03;;;;;;;19.8;9.7;;;;;;;;;;;;;-70
2024/05/01 09:37:09;;;;;;;16.7;10.9;;;;;;;;;;;;;-75
2024/05/01 10:07:12;;;;;;;17.6;13.8;;;;;;;;;;;;;-72
2024/05/01 10:37:18;;;;;;;18;14.6;;;;;;;;;;;;;-65
2024/05/01 11:07:22;;;;;;;19.9;14.3;;;;;;;;;;;;;-71
2024/05/01 11:37:27;;;;;;;19.6;13.4;;;;;;;;;;;;;-68
2024/05/01 12:07:32;;;;;;;17.2;12.2;;;;;;;;;;;;;-67
2024/05/01 12:37:44;;;;;;;19.2;12.1;;;;;;;;;;;;;-67
2024/05/01 13:07:49;;;;;;;19.7;11.9;;;;;;;;;;;;;-68
2024/05/01 13:37:49;;;;;;;21.4;12.1;;;;;;;;;;;;;-69
2024/05/01 14:07:55;;;;;;;20.4;12.5;;;;;;;;;;;;;-64
2024/05/01 14:38:00;;;;;;;22.3;13.2;;;;;;;;;;;;;-68
2024/05/01 15:08:14;;;;;;;22;12.8;;;;;;;;;;;;;-68
2024/05/01 15:38:16;;;;;;;20.7;11.6;;;;;;;;;;;;;-68
2024/05/01 16:08:18;;;;;;;17.9;11.1;;;;;;;;;;;;;-72
2024/05/01 16:38:21;;;;;;;19.4;10.9;;;;;;;;;;;;;-67
2024/05/01 17:08:25;;;;;;;17.4;11.3;;;;;;;;;;;;;-68
2024/05/01 17:38:29;;;;;;;23.4;15.5;;;;;;;;;;;;;-72
2024/05/01 18:38:37;;;;;;;18.6;12.8;;;;;;;;;;;;;-74
2024/05/01 19:08:41;;;;;;;18.2;11.7;;;;;;;;;;;;;-71
2024/05/01 19:38:46;;;;;;;16.9;11.3;;;;;;;;;;;;;-71
2024/05/01 20:08:48;;;;;;;18.2;12.7;;;;;;;;;;;;;-70
2024/05/01 20:38:51;;;;;;;17.7;11.5;;;;;;;;;;;;;-69
2024/05/01 21:08:53;;;;;;;16.1;12.1;;;;;;;;;;;;;-74
2024/05/01 21:38:56;;;;;;;16.1;11.6;;;;;;;;;;;;;-68
2024/05/01 22:08:59;;;;;;;13.4;10.5;;;;;;;;;;;;;-67
2024/05/01 22:39:02;;;;;;;19.4;11;;;;;;;;;;;;;-71
2024/05/01 23:09:05;;;;;;;14.7;11.1;;;;;;;;;;;;;-72
2024/05/01 23:39:08;;;;;;;15.6;10.4;;;;;;;;;;;;;-69
